Time;durP1;ratioP1;P1;durP2;ratioP2;P2;SDS_P1;SDS_P2;PMS_P1;PMS_P2;Temp;Humidity;BMP_temperature;BMP_pressure;BME280_temperature;BME280_humidity;BME280_pressure;Samples;Min_cycle;Max_cycle;Signal;HPM_P1;HPM_P2
2022/11/02 00:01:36;;;;;;;7.38;1.38;;;10.50;99.90;;;;;;5087434;28;20323;-69
2022/11/02 00:04:03;;;;;;;6.57;1.63;;;10.50;99.90;;;;;;5064270;28;20498;-67
2022/11/02 00:06:30;;;;;;;8.82;1.75;;;10.50;99.90;;;;;;5074016;28;20044;-68
2022/11/02 00:08:57;;;;;;;9.80;2.33;;;10.50;99.90;;;;;;5084154;28;20267;-67
2022/11/02 00:11:23;;;;;;;7.03;1.20;;;10.40;99.90;;;;;;4733952;28;10000102;-67
2022/11/02 00:13:50;;;;;;;8.75;2.10;;;10.40;99.90;;;;;;5088234;28;20048;-67
2022/11/02 00:16:17;;;;;;;6.85;1.45;;;10.50;99.90;;;;;;5087058;28;20051;-67
2022/11/02 00:18:45;;;;;;;6.32;1.10;;;10.40;99.90;;;;;;5087107;28;20052;-67
2022/11/02 00:21:12;;;;;;;7.80;1.00;;;10.50;99.90;;;;;;5088246;28;20135;-65
2022/11/02 00:23:39;;;;;;;7.90;1.05;;;10.50;99.90;;;;;;5064580;28;20049;-67
2022/11/02 00:26:06;;;;;;;7.35;1.40;;;10.50;99.90;;;;;;5085691;28;20415;-66
2022/11/02 00:28:33;;;;;;;7.15;1.30;;;10.50;99.90;;;;;;5075186;28;20070;-66
2022/11/02 00:31:00;;;;;;;6.18;1.08;;;10.50;99.90;;;;;;5088433;28;20036;-66
2022/11/02 00:33:26;;;;;;;4.00;1.30;;;10.50;99.90;;;;;;5087059;28;20040;-67
2022/11/02 00:35:53;;;;;;;11.40;1.25;;;10.50;99.90;;;;;;5069818;28;20040;-67
2022/11/02 00:38:20;;;;;;;9.27;1.70;;;10.40;99.90;;;;;;5085999;28;20068;-66
2022/11/02 00:40:47;;;;;;;6.82;1.58;;;10.40;99.90;;;;;;5088358;28;20279;-66
2022/11/02 00:43:14;;;;;;;4.57;0.80;;;10.40;99.90;;;;;;5086357;28;20044;-66
2022/11/02 00:45:40;;;;;;;6.03;1.25;;;10.40;99.90;;;;;;5093097;28;20467;-66
2022/11/02 00:48:07;;;;;;;7.50;0.95;;;10.40;99.90;;;;;;5095944;28;20044;-66
2022/11/02 00:50:34;;;;;;;9.70;1.20;;;10.30;99.90;;;;;;5096086;28;20486;-66
2022/11/02 00:53:01;;;;;;;6.85;0.95;;;10.40;99.90;;;;;;5089833;28;20418;-66
2022/11/02 00:55:28;;;;;;;9.65;1.65;;;10.40;99.90;;;;;;5090982;28;20044;-66
2022/11/02 00:57:54;;;;;;;11.77;1.40;;;10.40;99.90;;;;;;5099024;28;20036;-65
2022/11/02 01:00:21;;;;;;;7.35;1.13;;;10.30;99.90;;;;;;5096283;28;20126;-65
2022/11/02 01:02:48;;;;;;;5.25;1.00;;;10.30;99.90;;;;;;5095800;28;20044;-65
2022/11/02 01:05:15;;;;;;;4.63;1.15;;;10.30;99.90;;;;;;5096101;28;20066;-67
2022/11/02 01:07:41;;;;;;;10.70;2.72;;;10.20;99.90;;;;;;5096341;28;20054;-67
2022/11/02 01:10:09;;;;;;;5.43;1.27;;;10.20;99.90;;;;;;5094285;28;20052;-67
2022/11/02 01:12:39;;;;;;;9.27;1.17;;;10.20;99.90;;;;;;5076134;28;20056;-66
2022/11/02 01:15:06;;;;;;;5.10;0.95;;;10.20;99.90;;;;;;5092662;28;20101;-66
2022/11/02 01:17:33;;;;;;;5.50;1.20;;;10.20;99.90;;;;;;5090719;28;20557;-66
2022/11/02 01:20:00;;;;;;;4.22;1.15;;;10.20;99.90;;;;;;5093609;28;20118;-67
2022/11/02 01:22:27;;;;;;;6.53;1.00;;;10.20;99.90;;;;;;5093443;28;20402;-66
2022/11/02 01:24:54;;;;;;;10.98;1.02;;;10.20;99.90;;;;;;5091273;28;20048;-67
2022/11/02 01:27:21;;;;;;;4.93;1.58;;;10.10;99.90;;;;;;5090089;28;20059;-66
2022/11/02 01:29:47;;;;;;;6.47;1.13;;;10.10;99.90;;;;;;5088587;28;20051;-67
2022/11/02 01:32:14;;;;;;;7.38;0.95;;;10.20;99.90;;;;;;5089231;28;20112;-67
2022/11/02 01:34:41;;;;;;;5.53;1.10;;;10.10;99.90;;;;;;5088901;28;20047;-67
2022/11/02 01:37:09;;;;;;;14.27;1.55;;;10.10;99.90;;;;;;5071175;28;20107;-68
2022/11/02 01:39:35;;;;;;;4.60;0.90;;;10.00;99.90;;;;;;5071439;28;20044;-68
2022/11/02 01:42:02;;;;;;;6.43;1.20;;;10.00;99.90;;;;;;5089165;28;20135;-67
2022/11/02 01:44:33;;;;;;;10.68;1.48;;;10.00;99.90;;;;;;5088673;28;20150;-67
2022/11/02 01:47:10;;;;;;;6.15;0.95;;;10.00;99.90;;;;;;5071580;28;20055;-66
2022/11/02 01:49:37;;;;;;;6.40;1.25;;;10.00;99.90;;;;;;5067399;28;20160;-66
2022/11/02 01:52:06;;;;;;;8.07;1.50;;;10.00;99.90;;;;;;5071047;28;20419;-67
2022/11/02 01:54:49;;;;;;;6.30;0.95;;;10.00;99.90;;;;;;5070548;28;20058;-66
2022/11/02 01:57:18;;;;;;;6.20;1.30;;;9.90;99.90;;;;;;5060945;28;20044;-67
2022/11/02 01:59:52;;;;;;;10.77;1.20;;;9.90;99.90;;;;;;5070757;28;20048;-67
2022/11/02 02:02:20;;;;;;;4.72;0.98;;;10.00;99.90;;;;;;5088762;28;20046;-66
2022/11/02 02:04:51;;;;;;;7.90;1.08;;;9.90;99.90;;;;;;5088113;28;20209;-65
2022/11/02 02:07:18;;;;;;;3.17;0.93;;;9.90;99.90;;;;;;5087348;28;20121;-66
2022/11/02 02:09:45;;;;;;;5.57;1.05;;;9.90;99.90;;;;;;5088384;28;20051;-67
2022/11/02 02:12:16;;;;;;;8.30;1.48;;;9.90;99.90;;;;;;4713647;28;10000422;-68
2022/11/02 02:14:43;;;;;;;7.68;1.13;;;9.80;99.90;;;;;;5084869;28;20425;-66
2022/11/02 02:17:32;;;;;;;4.55;1.08;;;9.90;99.90;;;;;;5086787;28;20040;-66
2022/11/02 02:20:05;;;;;;;6.70;1.27;;;9.90;99.90;;;;;;5087436;28;20055;-66
2022/11/02 02:22:34;;;;;;;3.10;1.00;;;9.90;99.90;;;;;;5086816;28;20044;-67
2022/11/02 02:25:39;;;;;;;15.82;2.65;;;9.90;99.90;;;;;;5087387;28;20723;-66
2022/11/02 02:28:28;;;;;;;7.72;1.90;;;9.80;99.90;;;;;;5089066;28;20124;-66
2022/11/02 02:30:57;;;;;;;10.10;1.33;;;9.80;99.90;;;;;;5091286;28;20498;-67
2022/11/02 02:33:32;;;;;;;6.05;1.35;;;9.80;99.90;;;;;;5079434;28;20047;-67
2022/11/02 02:36:05;;;;;;;12.80;1.67;;;9.80;99.90;;;;;;5073988;28;20056;-67
2022/11/02 02:38:33;;;;;;;6.00;1.23;;;9.80;99.90;;;;;;5092101;28;20075;-66
2022/11/02 02:41:24;;;;;;;9.50;1.48;;;9.80;99.90;;;;;;5091134;28;20296;-67
2022/11/02 02:43:54;;;;;;;6.35;1.02;;;9.70;99.90;;;;;;5068235;28;20051;-66
2022/11/02 02:46:57;;;;;;;7.68;1.17;;;9.80;99.90;;;;;;5090549;28;20043;-66
2022/11/02 02:49:47;;;;;;;8.50;1.15;;;9.70;99.90;;;;;;5062225;28;20054;-67
2022/11/02 02:52:14;;;;;;;15.23;2.38;;;9.70;99.90;;;;;;5090188;28;20555;-66
2022/11/02 02:54:42;;;;;;;7.47;1.83;;;9.70;99.90;;;;;;5074250;28;20044;-66
2022/11/02 02:57:10;;;;;;;14.00;2.33;;;9.70;99.90;;;;;;5090318;28;20047;-66
2022/11/02 02:59:40;;;;;;;9.52;1.13;;;9.60;99.90;;;;;;5070638;28;20051;-66
2022/11/02 03:02:11;;;;;;;5.15;1.17;;;9.70;99.90;;;;;;5090119;28;20058;-66
2022/11/02 03:04:38;;;;;;;10.60;1.67;;;9.60;99.90;;;;;;5090473;28;20510;-67
2022/11/02 03:07:04;;;;;;;17.48;2.25;;;9.70;99.90;;;;;;5091493;28;20062;-67
2022/11/02 03:09:34;;;;;;;7.03;2.05;;;9.70;99.90;;;;;;5091354;28;20083;-67
2022/11/02 03:12:32;;;;;;;12.23;1.75;;;9.70;99.90;;;;;;5090185;28;20976;-66
2022/11/02 03:15:02;;;;;;;9.35;1.42;;;9.60;99.90;;;;;;5080800;28;20383;-66
2022/11/02 03:17:36;;;;;;;8.85;1.45;;;9.70;99.90;;;;;;5090092;28;20225;-66
2022/11/02 03:20:03;;;;;;;;;;;9.70;99.90;;;;;;5080340;28;20040;-66
2022/11/02 03:22:35;;;;;;;12.57;2.78;;;9.70;99.90;;;;;;5089700;28;20445;-67
2022/11/02 03:25:13;;;;;;;4.38;1.33;;;9.70;99.90;;;;;;5090112;28;20048;-67
2022/11/02 03:28:16;;;;;;;9.57;1.65;;;9.70;99.90;;;;;;5091265;28;20135;-67
2022/11/02 03:30:49;;;;;;;11.73;2.90;;;9.70;99.90;;;;;;5067195;28;20040;-66
2022/11/02 03:33:19;;;;;;;8.60;2.92;;;9.70;99.90;;;;;;5073231;28;20051;-67
2022/11/02 03:36:06;;;;;;;17.00;2.10;;;9.70;99.90;;;;;;5061351;28;20079;-66
2022/11/02 03:38:43;;;;;;;16.15;1.95;;;9.70;99.90;;;;;;5077373;28;20509;-67
2022/11/02 03:41:10;;;;;;;14.50;2.05;;;9.70;99.90;;;;;;5089123;28;20196;-67
2022/11/02 03:43:37;;;;;;;11.07;1.90;;;9.70;99.90;;;;;;5090812;28;20142;-66
2022/11/02 03:46:05;;;;;;;14.77;1.65;;;9.60;99.90;;;;;;5073308;28;20048;-66
2022/11/02 03:48:39;;;;;;;12.77;2.15;;;9.70;99.90;;;;;;5056183;28;20517;-66
2022/11/02 03:51:08;;;;;;;9.48;1.58;;;9.60;99.90;;;;;;5070047;28;20048;-67
2022/11/02 03:53:46;;;;;;;12.52;1.35;;;9.60;99.90;;;;;;5073488;28;20044;-66
2022/11/02 03:56:43;;;;;;;9.38;1.40;;;9.60;99.90;;;;;;5080153;28;20048;-66
2022/11/02 03:59:12;;;;;;;11.90;2.05;;;9.60;99.90;;;;;;5072101;28;20047;-66
2022/11/02 04:01:43;;;;;;;7.78;1.48;;;9.50;99.90;;;;;;5089307;28;20058;-66
2022/11/02 04:04:10;;;;;;;9.88;1.95;;;9.50;99.90;;;;;;5072477;28;20055;-66
2022/11/02 04:06:37;;;;;;;12.20;1.80;;;9.50;99.90;;;;;;5091009;28;20044;-66
2022/11/02 04:09:04;;;;;;;10.68;1.70;;;9.50;99.90;;;;;;5089607;28;20392;-66
2022/11/02 04:19:46;;;;;;;9.82;1.60;;;9.30;99.90;;;;;;5089771;28;20052;-66
2022/11/02 04:25:17;;;;;;;9.38;1.90;;;9.30;99.90;;;;;;5090434;28;20046;-66
2022/11/02 04:27:49;;;;;;;15.85;1.88;;;9.30;99.90;;;;;;5091129;28;20394;-66
2022/11/02 04:30:19;;;;;;;9.48;2.10;;;9.30;99.90;;;;;;5090558;28;20091;-66
2022/11/02 04:35:34;;;;;;;5.95;1.67;;;9.20;99.90;;;;;;5074090;28;20044;-66
2022/11/02 04:40:46;;;;;;;19.85;2.47;;;9.20;99.90;;;;;;5088667;28;20066;-66
2022/11/02 04:43:13;;;;;;;10.38;1.70;;;9.20;99.90;;;;;;5077564;28;20098;-66
2022/11/02 04:45:40;;;;;;;15.10;1.77;;;9.20;99.90;;;;;;5076774;28;20062;-66
2022/11/02 04:48:07;;;;;;;14.43;2.17;;;9.20;99.90;;;;;;5089970;28;20040;-66
2022/11/02 04:50:34;;;;;;;12.55;1.88;;;9.20;99.90;;;;;;5055228;28;20074;-66
2022/11/02 04:53:02;;;;;;;14.63;3.47;;;9.20;99.90;;;;;;5088819;28;20445;-66
2022/11/02 04:55:29;;;;;;;10.98;1.38;;;9.10;99.90;;;;;;5089319;28;20048;-66
2022/11/02 04:57:56;;;;;;;7.90;1.45;;;9.10;99.90;;;;;;5089601;28;20062;-66
2022/11/02 05:00:23;;;;;;;12.60;1.75;;;9.00;99.90;;;;;;5089639;28;20131;-68
2022/11/02 05:02:49;;;;;;;14.18;1.83;;;9.10;99.90;;;;;;5088437;28;20040;-67
2022/11/02 05:05:16;;;;;;;8.32;1.85;;;9.00;99.90;;;;;;5087934;28;20123;-67
2022/11/02 05:07:43;;;;;;;14.77;2.33;;;9.00;99.90;;;;;;5088132;28;20048;-67
2022/11/02 05:10:10;;;;;;;5.40;1.40;;;9.00;99.90;;;;;;5071236;28;20052;-68
2022/11/02 05:12:37;;;;;;;14.40;2.08;;;9.00;99.90;;;;;;5089202;28;20162;-68
2022/11/02 05:15:04;;;;;;;13.70;2.38;;;8.90;99.90;;;;;;5055202;28;20054;-68
2022/11/02 05:17:31;;;;;;;13.00;2.67;;;8.90;99.90;;;;;;5088900;28;20534;-67
2022/11/02 05:19:58;;;;;;;10.15;2.13;;;8.90;99.90;;;;;;5089092;28;20578;-68
2022/11/02 05:22:25;;;;;;;9.55;1.42;;;8.90;99.90;;;;;;5087595;28;20494;-67
2022/11/02 05:24:51;;;;;;;10.65;2.08;;;8.90;99.90;;;;;;5089203;28;20052;-67
2022/11/02 05:27:18;;;;;;;15.02;1.90;;;8.90;99.90;;;;;;5088688;28;20059;-67
2022/11/02 05:29:45;;;;;;;13.82;1.63;;;8.90;99.90;;;;;;5089160;28;20336;-67
2022/11/02 05:32:12;;;;;;;14.60;1.70;;;8.90;99.90;;;;;;5088529;28;20040;-67
2022/11/02 05:34:38;;;;;;;8.50;1.70;;;8.90;99.90;;;;;;5088735;28;20513;-68
2022/11/02 05:37:06;;;;;;;8.32;1.33;;;8.90;99.90;;;;;;5088737;28;20055;-67
2022/11/02 05:39:34;;;;;;;15.05;1.77;;;8.90;99.90;;;;;;5088986;28;20052;-68
2022/11/02 05:42:01;;;;;;;14.80;1.50;;;8.70;99.90;;;;;;5088891;28;20052;-66
2022/11/02 05:44:27;;;;;;;13.93;4.38;;;8.90;99.90;;;;;;5087509;28;20047;-66
2022/11/02 05:46:54;;;;;;;17.35;2.30;;;8.90;99.90;;;;;;5088404;28;20044;-66
2022/11/02 05:49:21;;;;;;;10.00;1.80;;;8.90;99.90;;;;;;5087031;28;20143;-66
2022/11/02 05:51:48;;;;;;;8.27;1.80;;;8.90;99.90;;;;;;5088725;28;20058;-64
2022/11/02 05:54:14;;;;;;;8.68;1.83;;;9.00;99.90;;;;;;5088035;28;20044;-67
2022/11/02 05:56:41;;;;;;;24.70;4.05;;;9.00;99.90;;;;;;5087586;28;20122;-66
2022/11/02 05:59:08;;;;;;;10.88;2.22;;;9.00;99.90;;;;;;5088022;28;20131;-65
2022/11/02 06:01:35;;;;;;;11.60;1.75;;;9.00;99.90;;;;;;5087114;28;20506;-66
2022/11/02 06:04:02;;;;;;;21.88;2.25;;;9.10;99.90;;;;;;5087842;28;20127;-66
2022/11/02 06:06:29;;;;;;;8.95;2.00;;;9.10;99.90;;;;;;5087980;28;20130;-66
2022/11/02 06:08:56;;;;;;;14.27;2.42;;;9.10;99.90;;;;;;5088495;28;20423;-66
2022/11/02 06:11:22;;;;;;;12.32;2.47;;;9.10;99.90;;;;;;5087286;28;20044;-66
2022/11/02 06:13:49;;;;;;;19.98;4.25;;;9.10;99.90;;;;;;5088126;28;20054;-66
2022/11/02 06:16:16;;;;;;;13.98;2.28;;;9.10;99.90;;;;;;5086755;28;20052;-66
2022/11/02 06:18:48;;;;;;;18.90;3.22;;;9.10;99.90;;;;;;5087259;28;20074;-66
2022/11/02 06:21:15;;;;;;;11.38;3.45;;;9.10;99.90;;;;;;5086732;28;20151;-66
2022/11/02 06:23:42;;;;;;;8.82;2.13;;;9.10;99.90;;;;;;5088233;28;20502;-67
2022/11/02 06:26:10;;;;;;;17.08;2.72;;;9.10;99.90;;;;;;5076901;28;20046;-67
2022/11/02 06:28:37;;;;;;;14.95;3.95;;;9.10;99.90;;;;;;5070319;28;20066;-67
2022/11/02 06:31:04;;;;;;;12.40;2.67;;;9.20;99.90;;;;;;5088655;28;20123;-67
2022/11/02 06:33:31;;;;;;;9.63;1.98;;;9.10;99.90;;;;;;5087939;28;20058;-67
2022/11/02 06:35:57;;;;;;;7.57;1.75;;;9.10;99.90;;;;;;5070161;28;20422;-66
2022/11/02 06:38:24;;;;;;;9.70;2.38;;;9.10;99.90;;;;;;5070088;28;20137;-67
2022/11/02 06:41:05;;;;;;;10.82;2.88;;;9.10;99.90;;;;;;5079968;28;20075;-67
2022/11/02 06:43:36;;;;;;;9.23;1.73;;;9.10;99.90;;;;;;5087023;28;20139;-67
2022/11/02 06:46:03;;;;;;;22.42;1.92;;;9.10;99.90;;;;;;5086666;28;20487;-67
2022/11/02 06:48:30;;;;;;;14.68;2.08;;;9.10;99.90;;;;;;5088347;28;20048;-67
2022/11/02 06:51:02;;;;;;;19.33;2.70;;;9.10;99.90;;;;;;5086786;28;20036;-67
2022/11/02 06:53:29;;;;;;;10.23;2.72;;;9.10;99.90;;;;;;5067925;28;20044;-67
2022/11/02 06:55:56;;;;;;;14.15;3.08;;;9.20;99.90;;;;;;5084093;28;20320;-67
2022/11/02 06:58:23;;;;;;;12.00;1.85;;;9.20;99.90;;;;;;5082807;28;20574;-66
2022/11/02 07:00:55;;;;;;;9.90;2.63;;;9.20;99.90;;;;;;5083994;28;20150;-67
2022/11/02 07:03:22;;;;;;;9.50;1.63;;;9.20;99.90;;;;;;5084208;28;20533;-67
2022/11/02 07:05:52;;;;;;;11.40;2.25;;;9.20;99.90;;;;;;5084457;28;20040;-66
2022/11/02 07:08:19;;;;;;;10.40;1.80;;;9.30;99.90;;;;;;5083253;28;20059;-66
2022/11/02 07:10:47;;;;;;;14.98;2.00;;;9.30;99.90;;;;;;5084239;28;20062;-66
2022/11/02 07:13:13;;;;;;;13.10;2.35;;;9.40;99.90;;;;;;5082465;28;20457;-66
2022/11/02 07:15:40;;;;;;;12.57;2.28;;;9.40;99.90;;;;;;5086516;28;20052;-66
2022/11/02 07:18:07;;;;;;;18.90;2.08;;;9.40;99.90;;;;;;5086651;28;20044;-67
2022/11/02 07:20:34;;;;;;;11.60;2.50;;;9.40;99.90;;;;;;5069598;28;20403;-66
2022/11/02 07:23:01;;;;;;;10.95;2.25;;;9.50;99.90;;;;;;5086759;28;20043;-66
2022/11/02 07:25:29;;;;;;;8.05;1.90;;;9.50;99.90;;;;;;5085288;28;20383;-65
2022/11/02 07:27:58;;;;;;;9.55;2.65;;;9.50;99.90;;;;;;5085745;28;20109;-65
2022/11/02 07:30:26;;;;;;;17.95;3.38;;;9.40;99.90;;;;;;5086361;28;20388;-66
2022/11/02 07:32:54;;;;;;;20.27;2.83;;;9.50;99.90;;;;;;5085125;28;20182;-67
2022/11/02 07:35:21;;;;;;;11.90;2.10;;;9.50;99.90;;;;;;5086394;28;20158;-66
2022/11/02 07:37:54;;;;;;;8.77;2.08;;;9.50;99.90;;;;;;5068383;28;20522;-67
2022/11/02 07:40:21;;;;;;;5.15;1.95;;;9.50;99.90;;;;;;5086536;28;20539;-67
2022/11/02 07:42:48;;;;;;;12.48;2.30;;;9.50;99.90;;;;;;5085994;28;20051;-66
2022/11/02 07:45:14;;;;;;;11.80;2.38;;;9.60;99.90;;;;;;5087249;28;20140;-66
2022/11/02 07:47:44;;;;;;;11.32;2.22;;;9.60;99.90;;;;;;5085985;28;20419;-66
2022/11/02 07:50:11;;;;;;;16.65;3.15;;;9.70;99.90;;;;;;5087413;28;20052;-67
2022/11/02 07:52:49;;;;;;;10.88;1.75;;;9.70;99.90;;;;;;5065951;28;20518;-66
2022/11/02 07:55:17;;;;;;;22.17;4.63;;;9.70;99.90;;;;;;4724996;27;9999943;-64
2022/11/02 07:58:12;;;;;;;13.65;3.05;;;9.80;99.90;;;;;;5080293;28;20694;-67
2022/11/02 08:00:40;;;;;;;14.93;3.80;;;9.80;99.90;;;;;;5083569;28;20052;-65
2022/11/02 08:03:07;;;;;;;21.75;3.15;;;9.90;99.90;;;;;;5087837;28;20371;-67
2022/11/02 08:05:37;;;;;;;16.88;3.00;;;9.90;99.90;;;;;;5089614;28;20053;-68
2022/11/02 08:08:05;;;;;;;17.83;2.30;;;10.00;99.90;;;;;;5106277;28;20047;-66
2022/11/02 08:10:33;;;;;;;14.63;2.78;;;10.00;99.90;;;;;;5091136;28;20349;-67
2022/11/02 08:13:07;;;;;;;14.57;3.83;;;10.10;99.90;;;;;;5090156;28;20043;-66
2022/11/02 08:15:33;;;;;;;12.80;2.03;;;10.20;99.90;;;;;;5105979;28;20121;-67
2022/11/02 08:18:01;;;;;;;10.45;3.28;;;10.30;99.90;;;;;;5089133;28;20521;-67
2022/11/02 08:20:29;;;;;;;11.95;2.35;;;10.40;99.90;;;;;;5089375;28;20044;-67
2022/11/02 08:22:56;;;;;;;19.23;2.22;;;10.50;99.90;;;;;;5087742;28;20058;-67
2022/11/02 08:25:24;;;;;;;19.55;2.65;;;10.50;99.90;;;;;;5066636;28;20049;-68
2022/11/02 08:27:51;;;;;;;17.27;3.35;;;10.60;99.90;;;;;;5073777;28;20114;-67
2022/11/02 08:30:18;;;;;;;19.70;3.38;;;10.70;99.90;;;;;;5086494;28;20040;-68
2022/11/02 08:32:44;;;;;;;16.88;2.50;;;10.70;99.90;;;;;;5086764;28;20482;-67
2022/11/02 08:35:11;;;;;;;12.80;2.15;;;10.80;99.90;;;;;;5086015;28;20708;-67
2022/11/02 08:37:38;;;;;;;13.23;2.58;;;10.90;99.90;;;;;;5086208;28;20062;-67
2022/11/02 08:40:05;;;;;;;19.02;2.45;;;11.00;99.90;;;;;;5069463;28;20071;-68
2022/11/02 08:42:32;;;;;;;16.10;2.53;;;11.20;99.90;;;;;;5080658;28;20044;-66
2022/11/02 08:44:59;;;;;;;15.32;2.45;;;11.40;99.90;;;;;;5084897;28;20051;-69
2022/11/02 08:47:26;;;;;;;11.73;2.08;;;11.70;99.90;;;;;;5084801;28;20149;-66
2022/11/02 08:49:53;;;;;;;20.58;3.33;;;12.00;99.90;;;;;;5068013;28;20469;-67
2022/11/02 08:52:20;;;;;;;11.80;2.80;;;12.20;99.90;;;;;;5086302;28;20103;-66
2022/11/02 08:54:46;;;;;;;20.88;3.03;;;12.20;99.90;;;;;;5078860;28;20059;-67
2022/11/02 08:57:13;;;;;;;17.90;2.47;;;12.10;99.90;;;;;;5068853;28;20044;-68
2022/11/02 08:59:40;;;;;;;19.25;3.85;;;12.10;99.90;;;;;;5075829;28;20146;-67
2022/11/02 09:02:08;;;;;;;20.58;3.03;;;12.00;99.90;;;;;;5085764;28;20219;-68
2022/11/02 09:04:35;;;;;;;12.50;2.97;;;12.00;99.90;;;;;;5067395;28;20059;-68
2022/11/02 09:07:02;;;;;;;15.65;2.58;;;12.10;99.90;;;;;;5084309;28;20226;-68
2022/11/02 09:09:28;;;;;;;23.80;2.55;;;12.10;99.90;;;;;;5084876;28;20051;-68
2022/11/02 09:11:55;;;;;;;16.10;2.70;;;12.10;99.90;;;;;;5085622;28;20048;-67
2022/11/02 09:14:22;;;;;;;15.52;2.78;;;12.20;99.90;;;;;;5085427;28;20052;-68
2022/11/02 09:16:49;;;;;;;18.33;3.40;;;12.20;99.90;;;;;;5085831;28;20407;-68
2022/11/02 09:19:16;;;;;;;20.48;2.63;;;12.20;99.90;;;;;;5076017;28;20147;-69
2022/11/02 09:21:42;;;;;;;17.20;2.92;;;12.20;99.90;;;;;;5085812;28;20075;-68
2022/11/02 09:24:09;;;;;;;19.67;2.70;;;12.30;99.90;;;;;;5085605;28;20119;-68
2022/11/02 09:26:36;;;;;;;17.63;2.65;;;12.30;99.90;;;;;;5084950;28;20058;-67
2022/11/02 09:29:03;;;;;;;14.32;3.20;;;12.30;99.90;;;;;;5086563;28;20048;-69
2022/11/02 09:31:30;;;;;;;11.93;2.55;;;12.40;99.90;;;;;;5084356;28;20067;-69
2022/11/02 09:33:57;;;;;;;18.80;3.20;;;12.40;99.90;;;;;;5089191;28;20054;-69
2022/11/02 09:36:23;;;;;;;20.02;2.55;;;12.40;99.90;;;;;;5091048;28;20162;-68
2022/11/02 09:38:50;;;;;;;17.88;2.70;;;12.50;99.90;;;;;;5091908;28;20060;-69
2022/11/02 09:41:31;;;;;;;13.70;2.85;;;12.50;99.90;;;;;;5090362;28;20367;-68
2022/11/02 09:44:05;;;;;;;18.83;3.53;;;12.60;99.90;;;;;;5091122;28;20094;-69
2022/11/02 09:46:43;;;;;;;19.98;3.08;;;12.60;99.90;;;;;;5074707;28;20076;-69
2022/11/02 09:49:15;;;;;;;25.20;3.75;;;12.60;99.90;;;;;;5092736;28;20135;-68
2022/11/02 09:51:52;;;;;;;17.25;4.22;;;12.70;99.90;;;;;;5091844;28;20536;-69
2022/11/02 09:54:21;;;;;;;15.18;2.78;;;12.70;99.90;;;;;;5072943;28;20132;-69
2022/11/02 09:56:49;;;;;;;10.52;2.03;;;12.80;99.90;;;;;;5091534;28;20123;-68
2022/11/02 09:59:22;;;;;;;26.85;5.85;;;12.90;99.90;;;;;;5090685;28;20135;-68
2022/11/02 10:02:11;;;;;;;16.70;2.53;;;13.00;99.90;;;;;;5074717;28;20052;-70
2022/11/02 10:05:10;;;;;;;17.25;2.85;;;13.10;99.90;;;;;;5087879;28;20044;-69
2022/11/02 10:07:54;;;;;;;12.98;2.83;;;13.20;99.90;;;;;;5065435;28;20069;-71
2022/11/02 10:10:36;;;;;;;20.23;3.75;;;13.20;99.90;;;;;;5087005;28;20048;-69
2022/11/02 10:13:17;;;;;;;13.38;2.45;;;13.30;99.90;;;;;;5087081;28;20046;-69
2022/11/02 10:15:46;;;;;;;15.95;2.92;;;13.30;99.90;;;;;;5087395;28;20052;-69
2022/11/02 10:18:19;;;;;;;16.10;2.75;;;13.30;99.90;;;;;;5086740;28;20134;-68
2022/11/02 10:20:50;;;;;;;18.57;2.93;;;13.30;99.90;;;;;;5071085;28;20046;-69
2022/11/02 10:23:30;;;;;;;23.38;4.20;;;13.30;99.90;;;;;;5052428;28;20140;-68
2022/11/02 10:25:58;;;;;;;9.18;1.95;;;13.30;99.90;;;;;;5087554;28;20475;-69
2022/11/02 10:28:28;;;;;;;21.58;2.92;;;13.40;99.90;;;;;;5070818;28;20071;-69
2022/11/02 10:30:55;;;;;;;23.50;3.95;;;13.30;99.90;;;;;;5087715;28;20102;-69
2022/11/02 10:33:26;;;;;;;12.77;2.65;;;13.30;99.90;;;;;;5086459;28;20048;-69
2022/11/02 10:36:11;;;;;;;16.23;2.85;;;13.40;99.90;;;;;;5083503;28;20059;-68
2022/11/02 10:39:21;;;;;;;14.65;3.17;;;13.50;99.90;;;;;;5086459;28;20564;-69
2022/11/02 10:41:57;;;;;;;20.15;3.15;;;13.50;99.90;;;;;;5087987;28;20052;-69
2022/11/02 10:44:38;;;;;;;11.77;3.38;;;13.50;99.90;;;;;;5085154;28;20077;-69
2022/11/02 10:47:17;;;;;;;22.52;2.83;;;13.60;99.90;;;;;;5087014;28;20044;-69
2022/11/02 10:49:44;;;;;;;13.10;2.40;;;13.60;99.90;;;;;;5068865;28;20087;-69
2022/11/02 10:52:14;;;;;;;17.05;2.30;;;13.70;99.90;;;;;;5073178;28;20048;-69
2022/11/02 10:54:41;;;;;;;15.40;2.75;;;13.80;99.90;;;;;;5050450;28;20144;-69
2022/11/02 10:57:12;;;;;;;15.02;2.42;;;13.80;99.90;;;;;;5087235;28;20095;-69
2022/11/02 10:59:39;;;;;;;20.20;2.63;;;13.90;99.90;;;;;;5070241;28;20143;-69
2022/11/02 11:02:13;;;;;;;18.17;3.95;;;13.90;99.90;;;;;;5070449;28;20140;-69
2022/11/02 11:04:40;;;;;;;20.67;2.50;;;13.90;99.90;;;;;;5090425;28;20056;-69
2022/11/02 11:07:17;;;;;;;13.70;2.10;;;13.90;99.90;;;;;;5073930;28;20048;-69
2022/11/02 11:09:53;;;;;;;17.17;3.35;;;13.80;99.90;;;;;;5090179;28;20048;-68
2022/11/02 11:12:22;;;;;;;19.05;2.42;;;13.70;99.90;;;;;;5091880;28;20055;-69
2022/11/02 11:14:57;;;;;;;10.45;2.00;;;13.80;99.90;;;;;;5090263;28;20434;-68
2022/11/02 11:17:44;;;;;;;18.67;2.92;;;13.80;99.90;;;;;;5087477;28;20287;-69
2022/11/02 11:20:35;;;;;;;13.65;2.70;;;13.90;99.90;;;;;;4737079;28;10001154;-68
2022/11/02 11:23:14;;;;;;;24.77;4.45;;;14.00;99.90;;;;;;5087092;28;20142;-68
2022/11/02 11:25:41;;;;;;;14.63;3.40;;;14.10;99.90;;;;;;5084777;28;20048;-68
2022/11/02 11:28:53;;;;;;;20.65;3.63;;;14.10;99.90;;;;;;5086175;28;20044;-69
2022/11/02 11:31:19;;;;;;;15.07;3.92;;;14.30;99.90;;;;;;5071866;28;21050;-69
2022/11/02 11:33:52;;;;;;;15.77;3.10;;;14.30;99.90;;;;;;5086585;28;20098;-69
2022/11/02 11:36:29;;;;;;;17.08;3.85;;;14.30;99.90;;;;;;5086370;28;20048;-68
2022/11/02 11:38:58;;;;;;;20.33;3.70;;;14.40;99.90;;;;;;5090978;28;20113;-68
2022/11/02 11:41:25;;;;;;;13.27;3.35;;;14.40;99.90;;;;;;5091958;28;20135;-67
2022/11/02 11:43:52;;;;;;;14.20;2.47;;;14.50;99.90;;;;;;5089054;28;20138;-69
2022/11/02 11:46:19;;;;;;;15.93;3.45;;;14.50;99.90;;;;;;5087672;28;20071;-68
2022/11/02 11:48:55;;;;;;;15.80;3.08;;;14.60;99.90;;;;;;5070208;28;20052;-69
2022/11/02 11:51:46;;;;;;;17.58;2.97;;;14.60;99.90;;;;;;5085279;28;20507;-70
2022/11/02 11:54:23;;;;;;;15.77;4.05;;;14.70;99.90;;;;;;5071934;28;20044;-68
2022/11/02 11:56:54;;;;;;;18.25;2.58;;;14.70;99.90;;;;;;5083669;28;20079;-69
2022/11/02 11:59:25;;;;;;;15.50;2.40;;;14.60;99.90;;;;;;5069109;28;20581;-69
2022/11/02 12:01:57;;;;;;;11.10;2.85;;;14.60;99.90;;;;;;5085301;28;20044;-69
2022/11/02 12:04:31;;;;;;;16.90;2.97;;;14.70;99.90;;;;;;5086308;28;20587;-69
2022/11/02 12:07:33;;;;;;;9.70;2.38;;;14.60;99.90;;;;;;5086137;28;20044;-68
2022/11/02 12:10:21;;;;;;;16.75;2.53;;;14.60;99.90;;;;;;5085701;28;20513;-69
2022/11/02 12:12:57;;;;;;;19.95;2.90;;;14.70;99.90;;;;;;5077090;28;20461;-69
2022/11/02 12:15:39;;;;;;;14.00;2.95;;;14.80;99.90;;;;;;5086015;28;20068;-69
2022/11/02 12:18:16;;;;;;;16.58;2.75;;;14.80;99.90;;;;;;5078215;28;20070;-70
2022/11/02 12:20:58;;;;;;;21.15;3.38;;;14.80;99.90;;;;;;5084448;28;20131;-69
2022/11/02 12:23:59;;;;;;;20.15;3.80;;;14.80;99.90;;;;;;5063113;28;20083;-69
2022/11/02 12:26:36;;;;;;;18.70;3.22;;;14.80;99.90;;;;;;5084874;28;20039;-69
2022/11/02 12:29:16;;;;;;;17.15;3.70;;;14.80;99.90;;;;;;5068883;28;20509;-70
2022/11/02 12:31:44;;;;;;;18.88;3.10;;;14.80;99.90;;;;;;5068213;28;20044;-69
2022/11/02 12:34:39;;;;;;;13.88;3.13;;;14.70;99.90;;;;;;5085989;28;20133;-68
2022/11/02 12:37:37;;;;;;;14.38;3.22;;;14.70;99.90;;;;;;5084110;28;20445;-67
2022/11/02 12:40:25;;;;;;;30.33;4.20;;;14.70;99.90;;;;;;5065016;28;20403;-68
2022/11/02 12:43:07;;;;;;;20.17;3.47;;;14.70;99.90;;;;;;5085369;28;20054;-66
2022/11/02 12:46:09;;;;;;;26.48;4.03;;;14.70;99.90;;;;;;5084747;28;20056;-66
2022/11/02 12:48:39;;;;;;;19.58;4.72;;;14.70;99.90;;;;;;5082655;28;20555;-69
2022/11/02 12:51:15;;;;;;;19.67;2.90;;;14.60;99.90;;;;;;5085891;28;20058;-66
2022/11/02 12:53:44;;;;;;;16.92;2.75;;;14.70;99.90;;;;;;5072644;28;20059;-67
2022/11/02 12:56:43;;;;;;;19.10;3.38;;;14.70;99.90;;;;;;5094083;28;20063;-68
2022/11/02 12:59:21;;;;;;;18.95;3.13;;;14.70;99.90;;;;;;5074537;28;20474;-69
2022/11/02 13:01:51;;;;;;;14.98;2.90;;;14.60;99.90;;;;;;5090720;28;20043;-68
2022/11/02 13:04:20;;;;;;;17.90;3.20;;;14.60;99.90;;;;;;5085574;28;20445;-70
2022/11/02 13:07:00;;;;;;;18.00;3.95;;;14.50;99.90;;;;;;5086035;28;20052;-69
2022/11/02 13:09:53;;;;;;;25.65;3.65;;;14.40;99.90;;;;;;5084457;28;20048;-69
2022/11/02 13:12:21;;;;;;;20.98;3.97;;;14.40;99.90;;;;;;5078080;28;20318;-69
2022/11/02 13:14:50;;;;;;;22.75;4.05;;;14.40;99.90;;;;;;5082722;28;20060;-69
2022/11/02 13:17:27;;;;;;;25.77;4.55;;;14.40;99.90;;;;;;5070413;28;20103;-69
2022/11/02 13:19:56;;;;;;;35.25;6.32;;;14.40;99.90;;;;;;5077898;28;20066;-69
2022/11/02 13:22:34;;;;;;;16.80;3.42;;;14.50;99.90;;;;;;5086519;28;20079;-69
2022/11/02 13:25:06;;;;;;;16.95;3.22;;;14.40;99.90;;;;;;5095703;28;20158;-69